createdAt,value
2022-10-19T00:01:24.021Z,10.83
2022-10-19T00:04:27.060Z,10.85
2022-10-19T00:07:30.816Z,11.02
2022-10-19T00:10:33.963Z,11.15
2022-10-19T00:13:36.777Z,10.85
2022-10-19T00:16:40.241Z,11.11
2022-10-19T00:19:42.934Z,11.02
2022-10-19T00:22:45.894Z,11.27
2022-10-19T00:25:56.264Z,11.32
2022-10-19T00:28:59.290Z,11.32
2022-10-19T00:32:02.050Z,11.28
2022-10-19T00:35:05.255Z,11.37
2022-10-19T00:38:07.946Z,11.23
2022-10-19T00:41:10.833Z,11.07
2022-10-19T00:44:13.336Z,11.16
2022-10-19T00:47:19.065Z,11.21
2022-10-19T00:50:21.901Z,11.24
2022-10-19T00:53:27.351Z,11.21
2022-10-19T00:56:30.197Z,10.96
2022-10-19T00:59:35.038Z,11.06
2022-10-19T01:02:38.008Z,11.07
2022-10-19T01:05:41.692Z,11.15
2022-10-19T01:08:46.205Z,11.33
2022-10-19T01:12:09.761Z,11.42
2022-10-19T01:15:15.408Z,11.36
2022-10-19T01:18:30.188Z,11.34
2022-10-19T01:21:45.750Z,11.26
2022-10-19T01:25:09.160Z,11.12
2022-10-19T01:28:19.701Z,11.19
2022-10-19T01:31:32.019Z,11.25
2022-10-19T01:34:40.573Z,11.37
2022-10-19T01:37:51.845Z,11.23
2022-10-19T01:41:17.973Z,10.90
2022-10-19T01:44:33.388Z,11.04
2022-10-19T01:47:49.995Z,11.33
2022-10-19T01:50:55.136Z,11.44
2022-10-19T01:54:01.473Z,11.52
2022-10-19T01:57:07.890Z,11.59
2022-10-19T02:00:13.526Z,11.69
2022-10-19T02:03:18.648Z,11.75
2022-10-19T02:06:22.343Z,11.74
2022-10-19T02:09:25.046Z,11.66
2022-10-19T02:12:31.834Z,11.80
2022-10-19T02:15:39.717Z,11.70
2022-10-19T02:18:49.380Z,11.66
2022-10-19T02:21:52.626Z,11.80
2022-10-19T02:24:55.551Z,11.94
2022-10-19T02:27:58.515Z,11.86
2022-10-19T02:31:01.994Z,12.00
2022-10-19T02:34:07.739Z,12.06
2022-10-19T02:37:10.982Z,12.02
2022-10-19T02:40:13.724Z,12.19
2022-10-19T02:43:19.534Z,12.27
2022-10-19T02:47:04.006Z,12.26
2022-10-19T02:50:08.786Z,12.29
2022-10-19T02:53:11.471Z,12.39
2022-10-19T02:56:16.774Z,12.25
2022-10-19T02:59:19.495Z,12.42
2022-10-19T03:02:22.494Z,12.44
2022-10-19T03:05:25.149Z,12.52
2022-10-19T03:08:28.045Z,12.71
2022-10-19T03:11:31.228Z,12.71
2022-10-19T03:14:35.320Z,12.74
2022-10-19T03:17:37.893Z,12.61
2022-10-19T03:20:40.875Z,12.56
2022-10-19T03:23:43.525Z,12.38
2022-10-19T03:26:46.529Z,12.25
2022-10-19T03:29:49.308Z,12.40
2022-10-19T03:32:54.525Z,12.28
2022-10-19T03:36:28.310Z,12.19
2022-10-19T03:39:31.286Z,12.03
2022-10-19T03:42:33.976Z,12.03
2022-10-19T03:45:36.967Z,11.69
2022-10-19T03:48:39.515Z,11.41
2022-10-19T03:51:42.466Z,11.46
2022-10-19T03:54:45.887Z,11.30
2022-10-19T03:57:48.797Z,10.95
2022-10-19T04:00:52.265Z,10.95
2022-10-19T04:03:57.311Z,10.82
2022-10-19T04:07:00.010Z,10.83
2022-10-19T04:10:03.893Z,10.84
2022-10-19T04:13:06.521Z,10.68
2022-10-19T04:16:13.826Z,10.56
2022-10-19T04:19:17.858Z,10.55
2022-10-19T04:22:20.814Z,10.57
2022-10-19T04:25:24.402Z,10.41
2022-10-19T04:28:28.362Z,10.31
2022-10-19T04:31:31.168Z,10.14
2022-10-19T04:34:36.359Z,10.23
2022-10-19T04:37:41.832Z,10.28
2022-10-19T04:40:44.994Z,10.21
2022-10-19T04:43:48.562Z,10.29
2022-10-19T04:46:51.680Z,10.09
2022-10-19T04:49:54.274Z,10.05
2022-10-19T04:52:57.146Z,9.92
2022-10-19T04:56:00.283Z,9.82
2022-10-19T04:59:03.265Z,9.81
2022-10-19T05:02:05.871Z,9.78
2022-10-19T05:05:09.116Z,9.71
2022-10-19T05:08:11.986Z,9.66
2022-10-19T05:11:15.494Z,9.63
2022-10-19T05:14:20.463Z,9.68
2022-10-19T05:17:24.755Z,9.73
2022-10-19T05:20:27.625Z,9.65
2022-10-19T05:26:38.240Z,9.57
2022-10-19T05:29:42.733Z,9.35
2022-10-19T05:32:46.679Z,9.44
2022-10-19T05:35:49.597Z,9.37
2022-10-19T05:38:53.488Z,9.47
2022-10-19T05:41:56.557Z,9.56
2022-10-19T05:45:00.628Z,9.65
2022-10-19T05:48:03.690Z,9.91
2022-10-19T05:51:11.687Z,10.06
2022-10-19T05:54:15.506Z,10.15
2022-10-19T05:57:18.131Z,10.25
2022-10-19T06:00:21.072Z,10.31
2022-10-19T06:03:25.299Z,10.42
2022-10-19T06:06:28.379Z,10.58
2022-10-19T06:09:36.176Z,10.65
2022-10-19T06:12:38.797Z,10.71
2022-10-19T06:15:41.767Z,10.68
2022-10-19T06:18:45.050Z,10.85
2022-10-19T06:21:50.521Z,10.94
2022-10-19T06:24:53.151Z,11.09
2022-10-19T06:27:57.567Z,11.10
2022-10-19T06:31:00.670Z,11.22
2022-10-19T06:34:04.541Z,11.32
2022-10-19T06:37:08.198Z,11.44
2022-10-19T06:40:11.795Z,11.48
2022-10-19T06:43:14.477Z,11.66
2022-10-19T06:46:23.010Z,11.77
2022-10-19T06:49:25.694Z,11.86
2022-10-19T06:52:28.638Z,11.89
2022-10-19T06:55:31.281Z,12.00
2022-10-19T06:58:38.597Z,12.06
2022-10-19T07:01:41.250Z,12.07
2022-10-19T07:04:44.115Z,12.11
2022-10-19T07:07:46.828Z,12.23
2022-10-19T07:10:54.209Z,12.40
2022-10-19T07:13:56.953Z,12.54
2022-10-19T07:16:59.865Z,12.82
2022-10-19T07:20:05.318Z,12.90
2022-10-19T07:23:08.927Z,12.93
2022-10-19T07:26:17.557Z,13.08
2022-10-19T07:29:20.481Z,13.25
2022-10-19T07:32:23.102Z,13.34
2022-10-19T07:35:26.029Z,13.43
2022-10-19T07:38:30.334Z,13.57
2022-10-19T07:41:34.997Z,13.70
2022-10-19T07:44:37.689Z,13.78
2022-10-19T07:47:40.570Z,13.95
2022-10-19T07:50:48.173Z,14.10
2022-10-19T07:53:51.541Z,14.24
2022-10-19T07:56:54.183Z,14.42
2022-10-19T07:59:57.099Z,14.66
2022-10-19T08:03:43.261Z,14.84
2022-10-19T08:06:24.539Z,15.00
2022-10-19T08:09:51.348Z,15.15
2022-10-19T08:12:50.155Z,15.38
2022-10-19T08:15:52.746Z,15.60
2022-10-19T08:19:01.355Z,15.76
2022-10-19T08:22:03.960Z,15.93
2022-10-19T08:25:07.176Z,16.24
2022-10-19T08:28:09.826Z,16.42
2022-10-19T08:31:19.009Z,16.72
2022-10-19T08:34:21.886Z,16.92
2022-10-19T08:37:40.214Z,17.39
2022-10-19T08:40:47.548Z,18.83
2022-10-19T08:44:03.984Z,20.41
2022-10-19T08:47:23.307Z,21.67
2022-10-19T08:50:33.863Z,21.96
2022-10-19T08:53:56.352Z,23.05
2022-10-19T08:57:02.284Z,23.86
2022-10-19T09:00:36.949Z,24.19
2022-10-19T09:03:55.882Z,24.82
2022-10-19T09:07:07.906Z,25.28
2022-10-19T09:10:14.031Z,24.87
2022-10-19T09:13:18.281Z,25.05
2022-10-19T09:16:23.845Z,25.65
2022-10-19T09:19:31.078Z,25.42
2022-10-19T09:22:35.995Z,25.78
2022-10-19T09:25:39.904Z,25.79
2022-10-19T09:28:51.675Z,25.57
2022-10-19T09:35:30.649Z,26.04
2022-10-19T09:38:33.389Z,25.85
2022-10-19T09:41:36.641Z,26.79
2022-10-19T09:44:40.336Z,26.51
2022-10-19T09:47:48.029Z,26.37
2022-10-19T09:50:59.009Z,26.39
2022-10-19T09:54:02.102Z,26.16
2022-10-19T09:57:06.157Z,26.74
2022-10-19T10:00:18.034Z,26.86
2022-10-19T10:03:36.234Z,26.00
2022-10-19T10:06:41.102Z,25.84
2022-10-19T10:09:45.664Z,25.65
2022-10-19T10:12:50.106Z,25.83
2022-10-19T10:16:06.533Z,24.95
2022-10-19T10:19:13.744Z,25.49
2022-10-19T10:22:28.144Z,25.40
2022-10-19T10:25:34.341Z,25.66
2022-10-19T10:28:48.089Z,26.10
2022-10-19T10:32:03.978Z,26.34
2022-10-19T10:35:16.686Z,24.87
2022-10-19T10:38:25.392Z,26.14
2022-10-19T10:41:29.955Z,26.32
2022-10-19T10:44:36.680Z,26.33
2022-10-19T10:47:39.780Z,26.72
2022-10-19T10:50:45.015Z,27.03
2022-10-19T10:53:47.987Z,26.39
2022-10-19T10:57:17.039Z,26.45
2022-10-19T11:00:22.145Z,25.72
2022-10-19T11:03:30.661Z,26.37
2022-10-19T11:06:40.791Z,24.63
2022-10-19T11:09:58.375Z,24.79
2022-10-19T11:13:19.101Z,25.60
2022-10-19T11:16:31.374Z,24.94
2022-10-19T11:19:44.633Z,25.79
2022-10-19T11:23:02.327Z,23.79
2022-10-19T11:26:36.882Z,24.18
2022-10-19T11:29:57.681Z,24.61
2022-10-19T11:33:25.480Z,24.37
2022-10-19T11:36:54.194Z,22.79
2022-10-19T11:40:21.986Z,22.14
2022-10-19T11:43:40.322Z,21.22
2022-10-19T11:47:03.121Z,20.38
2022-10-19T11:50:32.117Z,19.74
2022-10-19T11:54:04.751Z,19.74
2022-10-19T11:57:18.906Z,19.48
2022-10-19T12:00:38.244Z,19.24
2022-10-19T12:04:06.041Z,19.08
2022-10-19T12:07:15.992Z,19.63
2022-10-19T12:10:46.505Z,20.76
2022-10-19T12:13:57.177Z,22.47
2022-10-19T12:17:08.234Z,23.40
2022-10-19T12:20:25.705Z,23.18
2022-10-19T12:23:34.929Z,22.63
2022-10-19T12:26:40.831Z,22.69
2022-10-19T12:29:49.159Z,23.60
2022-10-19T12:33:16.802Z,23.50
2022-10-19T12:36:45.758Z,23.86
2022-10-19T12:40:01.059Z,24.49
2022-10-19T12:43:24.641Z,24.62
2022-10-19T12:46:48.393Z,22.90
2022-10-19T12:49:56.025Z,23.68
2022-10-19T12:52:58.704Z,24.19
2022-10-19T12:56:21.916Z,24.38
2022-10-19T12:59:31.352Z,24.51
2022-10-19T13:02:37.387Z,24.87
2022-10-19T13:05:40.224Z,23.40
2022-10-19T13:08:58.041Z,23.60
2022-10-19T13:12:19.718Z,23.64
2022-10-19T13:15:35.195Z,23.71
2022-10-19T13:18:59.805Z,23.16
2022-10-19T13:22:02.807Z,22.36
2022-10-19T13:25:17.785Z,21.37
2022-10-19T13:28:36.569Z,20.70
2022-10-19T13:31:39.203Z,20.19
2022-10-19T13:34:42.325Z,19.83
2022-10-19T13:37:45.164Z,19.60
2022-10-19T13:40:47.953Z,19.18
2022-10-19T13:44:09.276Z,18.79
2022-10-19T13:47:24.581Z,18.62
2022-10-19T13:50:38.588Z,18.52
2022-10-19T13:54:16.676Z,18.32
2022-10-19T13:57:48.862Z,18.49
2022-10-19T14:01:04.608Z,18.60
2022-10-19T14:04:30.653Z,18.70
2022-10-19T14:07:43.750Z,18.79
2022-10-19T14:11:01.142Z,18.75
2022-10-19T14:14:14.586Z,18.47
2022-10-19T14:17:34.175Z,18.14
2022-10-19T14:20:39.240Z,17.90
2022-10-19T14:23:42.911Z,17.71
2022-10-19T14:26:46.944Z,17.56
2022-10-19T14:29:52.189Z,17.39
2022-10-19T14:32:59.405Z,17.21
2022-10-19T14:36:07.441Z,17.14
2022-10-19T14:39:24.628Z,17.05
2022-10-19T14:42:45.837Z,16.97
2022-10-19T14:46:06.408Z,16.88
2022-10-19T14:49:11.381Z,16.79
2022-10-19T14:52:25.123Z,16.64
2022-10-19T14:55:35.218Z,16.57
2022-10-19T14:59:00.849Z,16.44
2022-10-19T15:02:30.024Z,16.29
2022-10-19T15:05:36.445Z,16.21
2022-10-19T15:08:48.777Z,16.08
2022-10-19T15:11:53.888Z,15.98
2022-10-19T15:14:57.911Z,15.87
2022-10-19T15:18:00.559Z,15.75
2022-10-19T15:21:18.492Z,15.69
2022-10-19T15:24:28.352Z,15.59
2022-10-19T15:27:36.932Z,15.49
2022-10-19T15:30:39.740Z,15.36
2022-10-19T15:33:49.660Z,15.26
2022-10-19T15:36:58.086Z,15.12
2022-10-19T15:40:10.361Z,15.01
2022-10-19T15:43:31.137Z,14.89
2022-10-19T15:46:46.172Z,14.79
2022-10-19T15:49:55.913Z,14.68
2022-10-19T15:52:59.963Z,14.64
2022-10-19T15:59:16.835Z,14.43
2022-10-19T16:02:20.381Z,14.32
2022-10-19T16:05:25.419Z,14.34
2022-10-19T16:08:28.193Z,14.20
2022-10-19T16:11:33.663Z,14.08
2022-10-19T16:14:36.790Z,14.03
2022-10-19T16:17:40.516Z,13.95
2022-10-19T16:20:43.437Z,13.87
2022-10-19T16:23:47.047Z,13.79
2022-10-19T16:26:49.636Z,13.74
2022-10-19T16:29:52.482Z,13.65
2022-10-19T16:32:55.042Z,13.63
2022-10-19T16:35:57.988Z,13.51
2022-10-19T16:39:01.436Z,13.47
2022-10-19T16:42:05.056Z,13.45
2022-10-19T16:45:08.887Z,13.47
2022-10-19T16:48:14.608Z,13.46
2022-10-19T16:51:43.279Z,13.44
2022-10-19T16:54:46.263Z,13.26
2022-10-19T16:57:52.591Z,13.16
2022-10-19T17:00:59.828Z,13.10
2022-10-19T17:04:02.888Z,13.09
2022-10-19T17:07:06.953Z,13.04
2022-10-19T17:10:12.961Z,13.06
2022-10-19T17:13:17.078Z,13.01
2022-10-19T17:16:21.519Z,13.01
2022-10-19T17:19:25.536Z,12.89
2022-10-19T17:22:28.891Z,12.85
2022-10-19T17:25:32.325Z,12.79
2022-10-19T17:28:36.943Z,12.76
2022-10-19T17:31:41.750Z,12.73
2022-10-19T17:34:44.851Z,12.63
2022-10-19T17:37:48.666Z,12.60
2022-10-19T17:40:51.439Z,12.52
2022-10-19T17:43:54.824Z,12.44
2022-10-19T17:46:57.978Z,12.30
2022-10-19T17:50:04.189Z,12.29
2022-10-19T17:53:08.277Z,12.22
2022-10-19T17:56:17.554Z,12.13
2022-10-19T17:59:30.071Z,12.08
2022-10-19T18:02:38.530Z,12.03
2022-10-19T18:05:42.056Z,11.97
2022-10-19T18:08:48.549Z,11.90
2022-10-19T18:11:53.124Z,11.90
2022-10-19T18:14:56.691Z,11.87
2022-10-19T18:18:00.936Z,11.76
2022-10-19T18:21:09.645Z,11.65
2022-10-19T18:24:19.869Z,11.63
2022-10-19T18:27:24.601Z,11.56
2022-10-19T18:30:28.400Z,11.53
2022-10-19T18:33:35.923Z,11.47
2022-10-19T18:36:39.443Z,11.47
2022-10-19T18:39:42.586Z,11.44
2022-10-19T18:42:46.281Z,11.41
2022-10-19T18:45:54.756Z,11.41
2022-10-19T18:48:58.809Z,11.34
2022-10-19T18:52:02.467Z,11.31
2022-10-19T18:55:06.944Z,11.39
2022-10-19T18:58:11.060Z,11.33
2022-10-19T19:01:23.646Z,11.32
2022-10-19T19:04:26.947Z,11.25
2022-10-19T19:07:32.656Z,11.14
2022-10-19T19:10:35.317Z,11.01
2022-10-19T19:13:39.312Z,11.02
2022-10-19T19:16:43.925Z,10.95
2022-10-19T19:19:47.508Z,10.97
2022-10-19T19:22:50.566Z,10.95
2022-10-19T19:25:57.034Z,10.72
2022-10-19T19:29:05.368Z,10.59
2022-10-19T19:32:15.792Z,10.41
2022-10-19T19:35:19.549Z,10.49
2022-10-19T19:38:25.486Z,10.51
2022-10-19T19:41:34.655Z,10.44
2022-10-19T19:44:38.792Z,10.44
2022-10-19T19:47:42.638Z,10.36
2022-10-19T19:50:47.456Z,10.45
2022-10-19T19:53:51.618Z,10.27
2022-10-19T19:56:55.117Z,10.26
2022-10-19T19:59:58.265Z,10.19
2022-10-19T20:03:01.634Z,10.18
2022-10-19T20:06:05.809Z,10.04
2022-10-19T20:09:09.614Z,10.06
2022-10-19T20:12:13.050Z,9.95
2022-10-19T20:15:18.609Z,9.75
2022-10-19T20:18:23.224Z,9.63
2022-10-19T20:21:28.321Z,9.52
2022-10-19T20:24:33.039Z,9.53
2022-10-19T20:27:38.805Z,9.50
2022-10-19T20:30:44.952Z,9.46
2022-10-19T20:33:48.656Z,9.44
2022-10-19T20:36:52.081Z,9.52
2022-10-19T20:39:55.152Z,9.46
2022-10-19T20:42:58.157Z,9.46
2022-10-19T20:46:14.951Z,9.39
2022-10-19T20:49:18.402Z,9.41
2022-10-19T20:52:21.492Z,9.22
2022-10-19T20:55:24.492Z,9.01
2022-10-19T20:58:27.161Z,9.07
2022-10-19T21:01:33.940Z,8.93
2022-10-19T21:04:36.676Z,8.80
2022-10-19T21:07:40.752Z,8.71
2022-10-19T21:10:43.506Z,8.50
2022-10-19T21:13:47.360Z,8.34
2022-10-19T21:16:50.487Z,8.22
2022-10-19T21:19:57.149Z,7.88
2022-10-19T21:23:00.070Z,7.70
2022-10-19T21:26:03.167Z,7.95
2022-10-19T21:29:09.706Z,7.86
2022-10-19T21:32:12.528Z,7.63
2022-10-19T21:35:15.178Z,7.40
2022-10-19T21:38:18.103Z,7.46
2022-10-19T21:41:25.416Z,7.42
2022-10-19T21:44:30.430Z,7.57
2022-10-19T21:47:33.233Z,7.53
2022-10-19T21:50:36.509Z,7.63
2022-10-19T21:53:39.105Z,7.52
2022-10-19T21:56:42.235Z,7.09
2022-10-19T21:59:44.817Z,7.00
2022-10-19T22:02:48.837Z,7.21
2022-10-19T22:05:52.826Z,6.99
2022-10-19T22:08:55.716Z,7.02
2022-10-19T22:11:58.672Z,7.06
2022-10-19T22:15:01.264Z,7.09
2022-10-19T22:18:04.358Z,7.06
2022-10-19T22:21:10.378Z,6.95
2022-10-19T22:24:15.644Z,6.89
2022-10-19T22:27:18.287Z,7.17
2022-10-19T22:30:21.233Z,6.93
2022-10-19T22:33:25.312Z,6.84
2022-10-19T22:36:29.775Z,6.90
2022-10-19T22:39:32.565Z,6.84
2022-10-19T22:42:35.847Z,6.73
2022-10-19T22:45:38.814Z,6.74
2022-10-19T22:48:43.294Z,6.81
2022-10-19T22:51:46.002Z,6.55
2022-10-19T22:54:50.736Z,6.60
2022-10-19T22:57:53.772Z,6.45
2022-10-19T23:01:06.074Z,6.67
2022-10-19T23:04:08.859Z,6.55
2022-10-19T23:07:13.329Z,6.51
2022-10-19T23:10:16.435Z,6.41
2022-10-19T23:13:19.472Z,6.14
2022-10-19T23:16:22.192Z,6.12
2022-10-19T23:19:26.391Z,6.08
2022-10-19T23:22:29.070Z,6.08
2022-10-19T23:28:42.944Z,6.07
2022-10-19T23:31:46.021Z,5.87
2022-10-19T23:34:49.761Z,5.70
2022-10-19T23:37:52.829Z,5.38
2022-10-19T23:40:55.520Z,5.48
2022-10-19T23:43:59.899Z,5.60
2022-10-19T23:47:02.438Z,5.66
2022-10-19T23:50:05.724Z,5.69
2022-10-19T23:53:08.483Z,5.67
2022-10-19T23:56:17.944Z,5.80
2022-10-19T23:59:20.746Z,5.67
